Time;durP1;ratioP1;P1;durP2;ratioP2;P2;SDS_P1;SDS_P2;PMS_P1;PMS_P2;Temp;Humidity;BMP_temperature;BMP_pressure;BME280_temperature;BME280_humidity;BME280_pressure;Samples;Min_cycle;Max_cycle;Signal;HPM_P1;HPM_P2
2021/12/10 00:02:10;;;;;;;180.43;43.60;;;0.90;99.90;;;;;;4991755;28;20129;-75
2021/12/10 00:04:40;;;;;;;189.10;45.53;;;0.90;99.90;;;;;;4984878;28;20050;-75
2021/12/10 00:07:20;;;;;;;182.25;45.00;;;0.80;99.90;;;;;;4987831;28;20526;-75
2021/12/10 00:09:51;;;;;;;189.88;47.72;;;0.80;99.90;;;;;;4989238;28;20166;-75
2021/12/10 00:12:51;;;;;;;176.55;44.28;;;0.90;99.90;;;;;;4988040;28;20535;-75
2021/12/10 00:15:28;;;;;;;193.48;46.58;;;0.80;99.90;;;;;;4986238;28;20764;-75
2021/12/10 00:17:57;;;;;;;176.77;44.95;;;0.90;99.90;;;;;;4992643;28;20060;-75
2021/12/10 00:20:26;;;;;;;179.90;43.70;;;0.80;99.90;;;;;;4993912;28;20133;-75
2021/12/10 00:22:58;;;;;;;175.60;44.97;;;0.90;99.90;;;;;;4987506;28;20060;-75
2021/12/10 00:25:36;;;;;;;171.00;43.60;;;0.80;99.90;;;;;;4992319;28;20137;-76
2021/12/10 00:28:19;;;;;;;177.68;42.08;;;0.80;99.90;;;;;;4981175;28;20161;-76
2021/12/10 00:31:32;;;;;;;174.30;42.15;;;0.80;99.90;;;;;;4994803;28;20161;-77
2021/12/10 00:34:17;;;;;;;180.88;46.33;;;0.90;99.90;;;;;;4991613;28;20078;-78
2021/12/10 00:36:45;;;;;;;180.88;42.85;;;0.90;99.90;;;;;;4997395;28;20133;-78
2021/12/10 00:39:18;;;;;;;180.27;42.35;;;0.90;99.90;;;;;;4994308;28;20357;-77
2021/12/10 00:41:45;;;;;;;193.45;47.00;;;0.90;99.90;;;;;;4992920;28;20046;-77
2021/12/10 00:44:11;;;;;;;184.82;44.80;;;0.80;99.90;;;;;;4984098;28;20054;-77
2021/12/10 00:46:38;;;;;;;181.18;45.70;;;0.80;99.90;;;;;;4997178;28;20053;-78
2021/12/10 00:49:26;;;;;;;193.50;47.20;;;0.80;99.90;;;;;;4984867;23;20058;-75
2021/12/10 00:51:53;;;;;;;196.38;44.17;;;0.90;99.90;;;;;;5008077;28;20137;-75
2021/12/10 00:54:20;;;;;;;176.50;44.13;;;0.90;99.90;;;;;;5007709;28;20137;-75
2021/12/10 00:56:47;;;;;;;169.90;40.08;;;0.80;99.90;;;;;;4988896;28;20843;-75
2021/12/10 00:59:15;;;;;;;171.93;45.05;;;0.80;99.90;;;;;;5006271;28;20439;-75
2021/12/10 01:01:42;;;;;;;186.25;45.85;;;0.80;99.90;;;;;;5007586;28;20135;-75
2021/12/10 01:04:29;;;;;;;182.07;46.20;;;0.90;99.90;;;;;;5008567;28;20050;-75
2021/12/10 01:06:58;;;;;;;193.77;45.95;;;0.90;99.90;;;;;;5006652;28;20132;-75
2021/12/10 01:09:30;;;;;;;162.77;41.63;;;0.90;99.90;;;;;;4988711;28;20140;-75
2021/12/10 01:12:04;;;;;;;185.95;44.22;;;0.90;99.90;;;;;;5008508;28;20050;-75
2021/12/10 01:14:55;;;;;;;190.73;46.92;;;0.90;99.90;;;;;;4998725;28;20140;-75
2021/12/10 01:26:08;;;;;;;185.65;46.28;;;0.90;99.90;;;;;;5006917;28;20602;-75
2021/12/10 01:28:44;;;;;;;182.27;45.03;;;0.90;99.90;;;;;;4989676;28;20084;-75
2021/12/10 01:31:11;;;;;;;185.82;47.10;;;0.80;99.90;;;;;;4988686;28;20124;-75
2021/12/10 01:33:39;;;;;;;203.43;44.35;;;0.90;99.90;;;;;;4988670;28;20054;-75
2021/12/10 01:36:08;;;;;;;192.82;45.17;;;0.90;99.90;;;;;;4988382;28;20053;-75
2021/12/10 01:38:43;;;;;;;203.52;45.28;;;0.80;99.90;;;;;;4989169;28;20148;-75
2021/12/10 01:41:13;;;;;;;181.57;43.88;;;0.90;99.90;;;;;;5005859;28;20141;-75
2021/12/10 01:43:40;;;;;;;197.02;43.95;;;0.90;99.90;;;;;;4992070;28;20687;-75
2021/12/10 01:46:12;;;;;;;187.88;44.78;;;0.90;99.90;;;;;;4989035;28;20813;-75
2021/12/10 01:48:43;;;;;;;183.73;43.75;;;0.90;99.90;;;;;;5006124;28;20124;-75
2021/12/10 01:51:14;;;;;;;210.57;47.67;;;0.90;99.90;;;;;;5006195;28;20136;-75
2021/12/10 01:53:43;;;;;;;206.57;46.65;;;0.80;99.90;;;;;;5006429;28;20172;-75
2021/12/10 01:56:15;;;;;;;200.93;44.03;;;0.90;99.90;;;;;;5005715;28;20148;-75
2021/12/10 01:58:43;;;;;;;198.00;46.00;;;0.90;99.90;;;;;;5002403;28;20169;-75
2021/12/10 02:01:14;;;;;;;193.38;42.85;;;0.90;99.90;;;;;;4985712;28;20516;-75
2021/12/10 02:03:43;;;;;;;189.75;43.58;;;0.90;99.90;;;;;;5003690;28;20835;-75
2021/12/10 02:06:10;;;;;;;197.05;46.35;;;0.90;99.90;;;;;;4984519;28;20045;-74
2021/12/10 02:08:38;;;;;;;204.60;46.15;;;0.90;99.90;;;;;;4985260;28;20165;-75
2021/12/10 02:11:06;;;;;;;205.23;44.35;;;0.90;99.90;;;;;;5002525;28;20100;-75
2021/12/10 02:13:33;;;;;;;194.90;43.38;;;0.90;99.90;;;;;;4985292;28;20060;-75
2021/12/10 02:16:00;;;;;;;200.82;45.47;;;0.90;99.90;;;;;;4984932;28;20484;-75
2021/12/10 02:18:27;;;;;;;208.05;44.53;;;0.90;99.90;;;;;;4984780;28;20502;-75
2021/12/10 02:21:03;;;;;;;197.52;44.55;;;0.90;99.90;;;;;;4984141;28;20237;-74
2021/12/10 02:23:36;;;;;;;206.35;45.05;;;0.90;99.90;;;;;;4985547;28;20046;-74
2021/12/10 02:26:05;;;;;;;199.07;45.08;;;0.90;99.90;;;;;;5002487;28;20060;-75
2021/12/10 02:28:32;;;;;;;180.50;43.08;;;0.90;99.90;;;;;;5003053;28;20045;-75
2021/12/10 02:30:59;;;;;;;208.50;46.42;;;0.80;99.90;;;;;;5001790;28;20060;-75
2021/12/10 02:33:27;;;;;;;205.60;45.88;;;0.90;99.90;;;;;;5002197;28;20050;-75
2021/12/10 02:35:53;;;;;;;204.55;45.05;;;0.80;99.90;;;;;;5003700;28;20148;-75
2021/12/10 02:38:22;;;;;;;195.18;44.13;;;0.90;99.90;;;;;;5002103;28;20048;-75
2021/12/10 02:40:50;;;;;;;231.05;45.25;;;0.90;99.90;;;;;;5002875;28;20053;-75
2021/12/10 02:43:19;;;;;;;196.60;45.42;;;0.90;99.90;;;;;;5001524;28;20264;-74
2021/12/10 02:45:50;;;;;;;204.35;48.30;;;0.90;99.90;;;;;;4999561;28;20590;-75
2021/12/10 02:48:17;;;;;;;186.98;45.30;;;1.00;99.90;;;;;;5000878;28;20054;-75
2021/12/10 02:50:44;;;;;;;191.60;43.65;;;1.00;99.90;;;;;;4984142;28;20726;-75
2021/12/10 02:53:14;;;;;;;183.23;44.75;;;1.00;99.90;;;;;;5000857;28;20054;-75
2021/12/10 02:55:42;;;;;;;223.75;46.33;;;0.90;99.90;;;;;;4999911;28;20050;-75
2021/12/10 02:58:12;;;;;;;219.30;47.00;;;1.00;99.90;;;;;;5001290;28;20490;-75
2021/12/10 03:00:47;;;;;;;206.35;45.88;;;1.00;99.90;;;;;;5001067;28;20073;-75
2021/12/10 03:03:14;;;;;;;214.45;48.28;;;1.00;99.90;;;;;;5001992;28;20053;-75
2021/12/10 03:05:41;;;;;;;199.10;44.42;;;1.10;99.90;;;;;;5002588;28;20046;-75
2021/12/10 03:08:08;;;;;;;214.70;45.83;;;1.00;99.90;;;;;;5006975;28;20153;-75
2021/12/10 03:10:36;;;;;;;202.85;48.30;;;1.00;99.90;;;;;;4986101;28;20515;-75
2021/12/10 03:13:05;;;;;;;199.57;45.90;;;1.10;99.90;;;;;;5006340;28;20136;-74
2021/12/10 03:15:32;;;;;;;212.35;47.78;;;1.10;99.90;;;;;;4980788;28;20050;-75
2021/12/10 03:18:00;;;;;;;197.98;45.25;;;1.10;99.90;;;;;;5006820;28;20449;-75
2021/12/10 03:20:30;;;;;;;221.25;47.40;;;1.10;99.90;;;;;;4987906;28;20062;-75
2021/12/10 03:22:58;;;;;;;237.57;48.42;;;1.00;99.90;;;;;;4988776;28;20129;-75
2021/12/10 03:25:26;;;;;;;205.57;46.65;;;1.00;99.90;;;;;;4994490;28;20133;-75
2021/12/10 03:27:53;;;;;;;232.80;50.78;;;1.00;99.90;;;;;;4996576;28;20053;-75
2021/12/10 03:30:23;;;;;;;221.98;45.78;;;1.00;99.90;;;;;;4999554;28;20538;-75
2021/12/10 03:32:50;;;;;;;202.60;45.40;;;1.10;99.90;;;;;;5015116;28;20132;-75
2021/12/10 03:35:30;;;;;;;211.27;46.80;;;1.00;99.90;;;;;;5007509;28;20137;-75
2021/12/10 03:37:59;;;;;;;228.70;48.97;;;1.00;99.90;;;;;;5005695;28;20465;-75
2021/12/10 03:40:26;;;;;;;218.90;46.60;;;1.00;99.90;;;;;;5004316;28;20189;-75
2021/12/10 03:42:58;;;;;;;206.48;45.90;;;1.10;99.90;;;;;;5002429;28;20148;-75
2021/12/10 03:45:28;;;;;;;197.10;46.50;;;1.00;99.90;;;;;;4980706;28;20104;-75
2021/12/10 03:47:55;;;;;;;234.65;47.20;;;1.10;99.90;;;;;;5006205;28;20088;-75
2021/12/10 03:50:26;;;;;;;214.27;49.20;;;1.10;99.90;;;;;;5004471;28;20057;-75
2021/12/10 03:52:53;;;;;;;201.75;44.95;;;1.00;99.90;;;;;;4984673;28;20779;-75
2021/12/10 03:55:22;;;;;;;228.77;46.53;;;1.10;99.90;;;;;;5004542;28;20550;-75
2021/12/10 03:57:50;;;;;;;223.10;49.10;;;1.10;99.90;;;;;;4988037;28;20132;-75
2021/12/10 04:00:20;;;;;;;219.82;45.97;;;1.10;99.90;;;;;;5003932;28;20058;-75
2021/12/10 04:02:47;;;;;;;217.80;47.15;;;1.10;99.90;;;;;;5006192;28;20156;-75
2021/12/10 04:05:15;;;;;;;235.45;48.78;;;1.20;99.90;;;;;;5003785;28;20077;-75
2021/12/10 04:07:42;;;;;;;205.43;44.83;;;1.20;99.90;;;;;;4988134;28;20758;-75
2021/12/10 04:10:11;;;;;;;211.52;49.65;;;1.10;99.90;;;;;;5005151;28;20120;-75
2021/12/10 04:12:38;;;;;;;227.63;48.83;;;1.10;99.90;;;;;;4986760;28;20053;-75
2021/12/10 04:15:09;;;;;;;206.40;44.20;;;1.10;99.90;;;;;;4979908;28;20157;-74
2021/12/10 04:17:38;;;;;;;221.55;50.00;;;1.10;99.90;;;;;;5005149;28;20042;-75
2021/12/10 04:20:08;;;;;;;218.48;47.20;;;1.10;99.90;;;;;;4984225;28;20133;-75
2021/12/10 04:22:35;;;;;;;210.20;47.72;;;1.20;99.90;;;;;;4987054;28;20073;-75
2021/12/10 04:25:05;;;;;;;231.93;45.33;;;1.10;99.90;;;;;;5003416;28;20137;-75
2021/12/10 04:27:32;;;;;;;220.82;47.03;;;1.10;99.90;;;;;;4985809;28;20137;-75
2021/12/10 04:30:00;;;;;;;208.65;45.58;;;1.10;99.90;;;;;;5004698;28;20137;-76
2021/12/10 04:32:27;;;;;;;202.02;44.63;;;1.20;99.90;;;;;;5005182;28;20060;-75
2021/12/10 04:34:54;;;;;;;217.00;46.90;;;1.20;99.90;;;;;;5003025;28;20140;-75
2021/12/10 04:37:21;;;;;;;220.30;52.63;;;1.20;99.90;;;;;;5004858;28;20149;-75
2021/12/10 04:39:48;;;;;;;210.32;48.08;;;1.10;99.90;;;;;;4986472;28;20588;-75
2021/12/10 04:42:19;;;;;;;224.65;50.65;;;1.20;99.90;;;;;;5005342;28;20557;-75
2021/12/10 04:44:50;;;;;;;204.10;47.63;;;1.20;99.90;;;;;;4986542;28;20050;-75
2021/12/10 04:47:17;;;;;;;242.50;48.20;;;1.20;99.90;;;;;;4995723;28;20049;-75
2021/12/10 04:49:44;;;;;;;256.08;50.45;;;1.10;99.90;;;;;;5003257;28;20611;-75
2021/12/10 04:52:11;;;;;;;250.02;50.55;;;1.10;99.90;;;;;;4994973;28;20161;-75
2021/12/10 04:54:38;;;;;;;236.73;49.63;;;1.10;99.90;;;;;;4996432;28;20058;-75
2021/12/10 04:57:05;;;;;;;232.95;51.78;;;1.10;99.90;;;;;;4974750;28;20077;-75
2021/12/10 05:02:55;;;;;;;214.13;48.25;;;1.20;99.90;;;;;;4962808;28;20496;-77
2021/12/10 05:05:23;;;;;;;235.00;48.22;;;1.10;99.90;;;;;;4967336;28;20396;-77
2021/12/10 05:07:51;;;;;;;248.45;50.65;;;1.00;99.90;;;;;;4968483;28;20104;-77
2021/12/10 05:10:20;;;;;;;230.88;50.30;;;1.00;99.90;;;;;;4967330;28;20130;-77
2021/12/10 05:12:47;;;;;;;235.77;48.10;;;1.00;99.90;;;;;;4951656;28;20137;-77
2021/12/10 05:15:19;;;;;;;220.40;47.35;;;1.10;99.90;;;;;;4969587;28;20077;-77
2021/12/10 05:17:49;;;;;;;235.52;50.78;;;1.10;99.90;;;;;;4968576;28;20126;-77
2021/12/10 05:20:24;;;;;;;239.02;51.90;;;1.10;99.90;;;;;;4964895;28;20082;-77
2021/12/10 05:22:52;;;;;;;239.55;50.83;;;1.10;99.90;;;;;;4966538;28;20606;-77
2021/12/10 05:25:19;;;;;;;223.23;47.95;;;1.10;99.90;;;;;;4967836;28;20074;-77
2021/12/10 05:27:48;;;;;;;222.75;49.92;;;1.10;99.90;;;;;;4969251;28;20086;-77
2021/12/10 05:30:17;;;;;;;246.48;50.92;;;1.10;99.90;;;;;;4946239;28;20474;-75
2021/12/10 05:32:44;;;;;;;260.35;50.90;;;1.10;99.90;;;;;;4949345;28;20752;-76
2021/12/10 05:35:12;;;;;;;229.35;51.40;;;1.10;99.90;;;;;;4969658;28;20842;-76
2021/12/10 05:37:40;;;;;;;229.15;51.05;;;1.20;99.90;;;;;;4969929;28;20527;-76
2021/12/10 05:40:12;;;;;;;240.88;49.55;;;1.10;99.90;;;;;;4969443;28;20173;-76
2021/12/10 05:42:45;;;;;;;252.77;49.38;;;1.20;99.90;;;;;;4968952;28;20396;-76
2021/12/10 05:45:14;;;;;;;261.83;52.22;;;1.10;99.90;;;;;;4969190;28;20610;-75
2021/12/10 05:47:40;;;;;;;263.10;53.95;;;1.10;99.90;;;;;;4967519;28;20157;-77
2021/12/10 05:50:10;;;;;;;256.63;50.15;;;1.10;99.90;;;;;;4964321;28;20166;-77
2021/12/10 05:52:38;;;;;;;254.32;51.95;;;1.20;99.90;;;;;;4951452;28;20168;-76
2021/12/10 05:55:06;;;;;;;263.15;50.47;;;1.20;99.90;;;;;;4960365;28;20137;-76
2021/12/10 05:57:33;;;;;;;275.10;54.22;;;1.20;99.90;;;;;;4951617;28;20140;-75
2021/12/10 06:00:00;;;;;;;258.80;51.03;;;1.10;99.90;;;;;;4966482;28;20129;-76
2021/12/10 06:02:26;;;;;;;244.63;50.63;;;1.20;99.90;;;;;;4970609;28;20074;-76
2021/12/10 06:04:54;;;;;;;254.55;52.13;;;1.20;99.90;;;;;;4967961;28;20137;-75
2021/12/10 06:07:20;;;;;;;246.10;52.00;;;1.20;99.90;;;;;;4969376;28;20042;-75
2021/12/10 06:09:47;;;;;;;271.38;54.85;;;1.20;99.90;;;;;;4968410;28;20170;-74
2021/12/10 06:12:14;;;;;;;280.63;51.85;;;1.20;99.90;;;;;;4969630;28;20138;-76
2021/12/10 06:14:41;;;;;;;266.15;51.92;;;1.20;99.90;;;;;;4951225;28;20053;-75
2021/12/10 06:17:08;;;;;;;215.45;47.55;;;1.30;99.90;;;;;;4968681;28;20173;-76
2021/12/10 06:19:35;;;;;;;261.58;51.13;;;1.20;99.90;;;;;;5002619;23;20147;-79
2021/12/10 06:22:03;;;;;;;252.52;51.55;;;1.20;99.90;;;;;;5030265;28;20129;-76
2021/12/10 06:24:30;;;;;;;256.58;53.88;;;1.20;99.90;;;;;;5008446;28;20054;-75
2021/12/10 06:26:57;;;;;;;292.50;54.85;;;1.30;99.90;;;;;;5007804;28;20053;-75
2021/12/10 06:29:26;;;;;;;261.17;54.92;;;1.30;99.90;;;;;;5024247;28;20119;-74
2021/12/10 06:31:55;;;;;;;262.58;53.20;;;1.20;99.90;;;;;;5028201;28;20140;-76
2021/12/10 06:34:23;;;;;;;246.05;52.60;;;1.20;99.90;;;;;;5008845;28;20045;-75
2021/12/10 06:36:50;;;;;;;232.25;50.05;;;1.30;99.90;;;;;;5006716;28;20056;-76
2021/12/10 06:39:21;;;;;;;260.08;52.95;;;1.30;99.90;;;;;;5034193;23;20072;-74
2021/12/10 06:41:53;;;;;;;243.60;49.28;;;1.30;99.90;;;;;;4986113;28;20073;-74
2021/12/10 06:44:21;;;;;;;252.13;53.05;;;1.30;99.90;;;;;;4953690;28;20050;-74
2021/12/10 06:46:49;;;;;;;264.10;50.08;;;1.30;99.90;;;;;;4986810;28;20086;-74
2021/12/10 06:49:16;;;;;;;281.83;54.05;;;1.30;99.90;;;;;;4967663;28;20050;-74
2021/12/10 06:51:44;;;;;;;248.80;49.58;;;1.30;99.90;;;;;;4984319;28;20141;-74
2021/12/10 06:54:11;;;;;;;248.90;51.22;;;1.20;99.90;;;;;;4967749;28;20166;-75
2021/12/10 06:56:39;;;;;;;251.45;52.72;;;1.20;99.90;;;;;;4985274;28;20144;-75
2021/12/10 06:59:08;;;;;;;269.80;53.88;;;1.20;99.90;;;;;;4969926;28;20133;-74
2021/12/10 07:01:39;;;;;;;260.70;53.53;;;1.20;99.90;;;;;;4980233;28;20129;-74
2021/12/10 07:04:10;;;;;;;266.20;53.35;;;1.20;99.90;;;;;;4980284;28;20863;-74
2021/12/10 07:06:38;;;;;;;263.67;50.75;;;1.20;99.90;;;;;;4987455;28;20043;-75
2021/12/10 07:09:09;;;;;;;256.23;53.03;;;1.20;99.90;;;;;;4987162;28;20064;-75
2021/12/10 07:11:36;;;;;;;245.50;50.97;;;1.30;99.90;;;;;;4984893;28;20072;-75
2021/12/10 07:14:03;;;;;;;272.27;51.80;;;1.30;99.90;;;;;;4968914;28;20499;-75
2021/12/10 07:16:31;;;;;;;275.83;51.92;;;1.20;99.90;;;;;;4950455;28;20480;-74
2021/12/10 07:19:01;;;;;;;274.27;52.00;;;1.30;99.90;;;;;;4967834;28;20054;-75
2021/12/10 07:21:29;;;;;;;255.05;52.55;;;1.30;99.90;;;;;;4984850;28;20054;-74
2021/12/10 07:23:56;;;;;;;264.50;53.50;;;1.30;99.90;;;;;;4982840;28;20043;-75
2021/12/10 07:26:23;;;;;;;252.90;52.55;;;1.20;99.90;;;;;;4967182;28;20094;-75
2021/12/10 07:28:50;;;;;;;263.52;54.53;;;1.20;99.90;;;;;;4975979;28;20069;-75
2021/12/10 07:31:16;;;;;;;246.80;54.88;;;1.20;99.90;;;;;;4985674;28;20152;-75
2021/12/10 07:33:43;;;;;;;245.23;52.78;;;1.20;99.90;;;;;;4984690;28;20083;-74
2021/12/10 07:36:12;;;;;;;264.67;55.55;;;1.30;99.90;;;;;;4950788;28;20409;-75
2021/12/10 07:38:39;;;;;;;264.63;52.90;;;1.20;99.90;;;;;;4950800;28;20133;-75
2021/12/10 07:41:07;;;;;;;252.52;52.22;;;1.30;99.90;;;;;;4983428;28;20050;-75
2021/12/10 07:43:35;;;;;;;244.30;50.60;;;1.30;99.90;;;;;;4985204;28;20144;-75
2021/12/10 07:46:04;;;;;;;263.27;52.75;;;1.30;99.90;;;;;;4967454;28;20504;-74
2021/12/10 07:48:34;;;;;;;264.33;53.22;;;1.30;99.90;;;;;;4954225;28;20081;-75
2021/12/10 07:51:09;;;;;;;266.85;54.33;;;1.30;99.90;;;;;;4985095;28;20058;-75
2021/12/10 07:53:38;;;;;;;273.52;52.60;;;1.30;99.90;;;;;;4983269;28;20157;-75
2021/12/10 07:56:08;;;;;;;263.17;51.55;;;1.30;99.90;;;;;;4965549;28;20135;-75
2021/12/10 07:58:37;;;;;;;275.10;54.22;;;1.30;99.90;;;;;;4973574;28;20085;-75
2021/12/10 08:01:07;;;;;;;286.08;54.85;;;1.30;99.90;;;;;;4985930;28;20088;-75
2021/12/10 08:03:35;;;;;;;274.17;52.70;;;1.30;99.90;;;;;;4986198;28;20491;-74
2021/12/10 08:06:02;;;;;;;254.93;52.95;;;1.20;99.90;;;;;;4971760;28;20137;-75
2021/12/10 08:08:29;;;;;;;269.50;52.63;;;1.30;99.90;;;;;;4986016;28;20093;-74
2021/12/10 08:10:57;;;;;;;264.60;53.65;;;1.30;99.90;;;;;;4981700;28;20153;-75
2021/12/10 08:13:24;;;;;;;277.75;60.63;;;1.30;99.90;;;;;;4977614;28;20082;-75
2021/12/10 08:15:51;;;;;;;269.83;58.88;;;1.40;99.90;;;;;;4968518;28;20146;-75
2021/12/10 08:18:19;;;;;;;243.82;53.75;;;1.40;99.90;;;;;;4985001;28;20357;-75
2021/12/10 08:20:46;;;;;;;266.17;56.67;;;1.40;99.90;;;;;;4993272;28;20539;-75
2021/12/10 08:23:13;;;;;;;263.67;56.22;;;1.40;99.90;;;;;;4990599;28;20085;-75
2021/12/10 08:25:41;;;;;;;236.75;55.33;;;1.40;99.90;;;;;;4985778;28;20157;-75
2021/12/10 08:28:08;;;;;;;235.52;52.90;;;1.40;99.90;;;;;;4985746;28;20086;-75
2021/12/10 08:30:37;;;;;;;249.35;53.58;;;1.30;99.90;;;;;;4985973;28;20086;-74
2021/12/10 08:33:11;;;;;;;247.82;51.85;;;1.40;99.90;;;;;;4983597;28;20050;-74
2021/12/10 08:35:39;;;;;;;259.05;61.83;;;1.40;99.90;;;;;;4967951;28;20050;-75
2021/12/10 08:38:06;;;;;;;269.30;59.25;;;1.30;99.90;;;;;;4966659;28;20090;-75
2021/12/10 08:40:43;;;;;;;240.38;50.42;;;1.40;99.90;;;;;;4985080;28;20221;-75
2021/12/10 08:43:10;;;;;;;246.10;52.72;;;1.40;99.90;;;;;;4986299;28;20047;-75
2021/12/10 08:45:39;;;;;;;262.30;55.90;;;1.40;99.90;;;;;;4955231;28;20158;-74
2021/12/10 08:48:06;;;;;;;248.50;52.72;;;1.40;99.90;;;;;;4966579;28;20437;-75
2021/12/10 08:50:35;;;;;;;239.80;53.97;;;1.50;99.90;;;;;;4979368;28;20104;-75
2021/12/10 08:53:08;;;;;;;267.60;57.17;;;1.40;99.90;;;;;;4974754;28;20153;-75
2021/12/10 08:55:37;;;;;;;276.40;59.00;;;1.40;99.90;;;;;;4967887;28;20137;-75
2021/12/10 08:58:05;;;;;;;255.70;52.35;;;1.50;99.90;;;;;;4985745;28;20141;-74
2021/12/10 09:00:33;;;;;;;280.15;53.83;;;1.50;99.90;;;;;;4985810;28;20050;-74
2021/12/10 09:03:00;;;;;;;238.70;51.85;;;1.50;99.90;;;;;;4961397;28;20373;-74
2021/12/10 09:05:29;;;;;;;254.00;55.40;;;1.60;99.90;;;;;;4967954;28;20132;-74
2021/12/10 09:07:56;;;;;;;272.08;55.80;;;1.50;99.90;;;;;;4989936;28;20454;-75
2021/12/10 09:10:28;;;;;;;278.77;55.17;;;1.60;99.90;;;;;;4989410;28;20064;-75
2021/12/10 09:12:55;;;;;;;266.40;55.45;;;1.50;99.90;;;;;;4972607;28;20081;-75
2021/12/10 09:15:24;;;;;;;270.17;55.90;;;1.60;99.90;;;;;;4979648;28;20090;-75
2021/12/10 09:17:53;;;;;;;270.25;55.10;;;1.60;99.90;;;;;;4987879;28;20152;-74
2021/12/10 09:20:26;;;;;;;275.77;60.60;;;1.70;99.90;;;;;;4989576;28;20069;-75
2021/12/10 09:22:53;;;;;;;287.30;56.13;;;1.70;99.90;;;;;;4987980;28;20125;-75
2021/12/10 09:25:21;;;;;;;285.65;57.92;;;1.70;99.90;;;;;;4978785;28;20055;-74
2021/12/10 09:27:48;;;;;;;285.23;56.58;;;1.70;99.90;;;;;;4954219;28;20131;-74
2021/12/10 09:30:20;;;;;;;284.25;57.03;;;1.70;99.90;;;;;;4966788;28;20130;-74
2021/12/10 09:32:47;;;;;;;302.55;55.85;;;1.80;99.90;;;;;;4968151;28;20164;-74
2021/12/10 09:35:15;;;;;;;265.17;54.28;;;1.80;99.90;;;;;;4970367;28;20514;-75
2021/12/10 09:37:47;;;;;;;282.38;53.08;;;1.90;99.90;;;;;;4981029;23;20145;-75
2021/12/10 09:40:19;;;;;;;269.92;56.75;;;2.00;99.90;;;;;;4987263;28;20058;-75
2021/12/10 09:42:46;;;;;;;244.38;53.42;;;2.00;99.90;;;;;;4989217;28;20042;-75
2021/12/10 09:45:16;;;;;;;248.50;54.08;;;2.00;99.90;;;;;;4978455;28;20548;-75
2021/12/10 09:47:43;;;;;;;287.17;57.47;;;2.10;99.90;;;;;;4965172;28;20271;-75
2021/12/10 09:50:14;;;;;;;278.48;57.10;;;2.10;99.90;;;;;;4978343;28;20066;-75
2021/12/10 09:52:42;;;;;;;284.25;57.47;;;2.10;99.90;;;;;;4969982;28;20157;-75
2021/12/10 09:55:12;;;;;;;257.30;52.88;;;2.10;99.90;;;;;;4961811;28;20109;-75
2021/12/10 09:57:40;;;;;;;251.95;54.95;;;2.20;99.90;;;;;;4972085;28;20050;-75
2021/12/10 10:00:25;;;;;;;261.08;54.05;;;2.20;99.90;;;;;;4986560;28;20097;-75
2021/12/10 10:02:53;;;;;;;250.15;54.60;;;2.20;99.90;;;;;;4971857;28;20054;-75
2021/12/10 10:05:26;;;;;;;255.25;53.65;;;2.20;99.90;;;;;;5010453;23;20044;-74
2021/12/10 10:08:02;;;;;;;240.02;52.33;;;2.20;99.90;;;;;;5014999;28;20547;-75
2021/12/10 10:10:32;;;;;;;272.63;54.15;;;2.30;99.90;;;;;;5024662;28;20048;-75
2021/12/10 10:13:00;;;;;;;284.63;56.75;;;2.30;99.90;;;;;;5039575;28;20141;-75
2021/12/10 10:15:32;;;;;;;244.50;51.65;;;2.40;99.90;;;;;;5040717;28;20042;-75
2021/12/10 10:18:03;;;;;;;257.88;55.30;;;2.40;99.90;;;;;;5027677;28;20133;-75
2021/12/10 10:20:32;;;;;;;277.23;55.97;;;2.40;99.90;;;;;;5027139;28;20635;-76
2021/12/10 10:22:59;;;;;;;276.55;58.10;;;2.50;99.90;;;;;;5028245;28;20049;-75
2021/12/10 10:25:27;;;;;;;257.98;53.95;;;2.50;99.90;;;;;;5015432;28;20132;-75
2021/12/10 10:27:54;;;;;;;261.60;54.13;;;2.50;99.90;;;;;;5008702;28;20077;-75
2021/12/10 10:30:36;;;;;;;270.95;54.22;;;2.50;99.90;;;;;;5041681;28;20067;-75
2021/12/10 10:33:08;;;;;;;252.95;57.95;;;2.50;99.90;;;;;;5014080;28;21060;-75
2021/12/10 10:35:46;;;;;;;268.92;55.10;;;2.50;99.90;;;;;;5027973;28;20081;-75
2021/12/10 10:38:16;;;;;;;272.70;56.42;;;2.50;99.90;;;;;;5009761;28;20153;-75
2021/12/10 10:40:48;;;;;;;263.67;55.42;;;2.60;99.90;;;;;;5025651;28;20096;-75
2021/12/10 10:43:15;;;;;;;246.90;54.47;;;2.60;99.90;;;;;;5017562;28;20132;-75
2021/12/10 10:45:44;;;;;;;265.17;54.47;;;2.60;99.90;;;;;;5027171;28;20085;-75
2021/12/10 10:48:15;;;;;;;240.82;55.30;;;2.60;99.90;;;;;;5027928;28;20140;-75
2021/12/10 10:50:51;;;;;;;254.50;56.10;;;2.60;99.90;;;;;;5014864;28;20096;-75
2021/12/10 10:53:28;;;;;;;250.48;54.05;;;2.50;99.90;;;;;;5001312;28;20149;-76
2021/12/10 10:55:57;;;;;;;267.65;54.38;;;2.50;99.90;;;;;;4990790;28;20099;-75
2021/12/10 10:58:30;;;;;;;257.27;54.28;;;2.50;99.90;;;;;;5013362;28;20048;-75
2021/12/10 11:01:02;;;;;;;249.63;53.47;;;2.50;99.90;;;;;;5016789;28;20478;-75
2021/12/10 11:04:01;;;;;;;235.85;52.67;;;2.50;99.90;;;;;;5017154;28;20041;-75
2021/12/10 11:06:39;;;;;;;253.07;59.45;;;2.50;99.90;;;;;;5009263;28;20049;-75
2021/12/10 11:09:20;;;;;;;238.07;53.35;;;2.50;99.90;;;;;;5009648;28;20136;-75
2021/12/10 11:12:01;;;;;;;240.23;55.92;;;2.50;99.90;;;;;;5036589;28;20543;-75
2021/12/10 11:14:52;;;;;;;234.52;56.83;;;2.50;99.90;;;;;;5008089;28;20096;-76
2021/12/10 11:17:33;;;;;;;247.45;52.17;;;2.50;99.90;;;;;;5007325;28;20053;-76
2021/12/10 11:20:02;;;;;;;225.82;50.28;;;2.50;99.90;;;;;;4997747;28;20056;-75
2021/12/10 11:22:30;;;;;;;240.52;54.17;;;2.50;99.90;;;;;;5008771;28;20046;-75
2021/12/10 11:25:12;;;;;;;227.60;52.78;;;2.50;99.90;;;;;;5027038;28;20081;-76
2021/12/10 11:27:41;;;;;;;214.23;51.35;;;2.50;99.90;;;;;;5008454;28;20596;-76
2021/12/10 11:30:23;;;;;;;252.13;60.58;;;2.50;99.90;;;;;;5012347;28;20050;-76
2021/12/10 11:32:53;;;;;;;241.52;53.42;;;2.40;99.90;;;;;;5034053;28;20077;-76
2021/12/10 11:35:30;;;;;;;327.67;81.93;;;2.40;99.90;;;;;;5022991;28;20487;-76
2021/12/10 11:38:16;;;;;;;264.77;73.22;;;2.40;99.90;;;;;;5025329;28;20517;-76
2021/12/10 11:40:49;;;;;;;222.13;52.55;;;2.40;99.90;;;;;;5011962;28;20128;-76
2021/12/10 11:43:43;;;;;;;231.95;56.45;;;2.40;99.90;;;;;;5016148;28;20089;-76
2021/12/10 11:46:32;;;;;;;242.82;55.35;;;2.40;99.90;;;;;;5025768;28;20057;-76
2021/12/10 11:49:02;;;;;;;208.50;51.90;;;2.40;99.90;;;;;;5026410;28;20124;-76
2021/12/10 11:52:01;;;;;;;230.57;53.55;;;2.30;99.90;;;;;;5025404;28;20135;-76
2021/12/10 11:54:36;;;;;;;214.85;49.95;;;2.30;99.90;;;;;;4975739;28;20144;-76
2021/12/10 11:57:21;;;;;;;210.65;52.17;;;2.30;99.90;;;;;;5026762;28;20080;-76
2021/12/10 12:00:11;;;;;;;192.30;46.70;;;2.30;99.90;;;;;;5032247;28;20053;-76
2021/12/10 12:02:49;;;;;;;210.85;48.38;;;2.30;99.90;;;;;;5030574;28;20045;-76
2021/12/10 12:05:20;;;;;;;225.60;51.38;;;2.30;99.90;;;;;;5013924;28;20706;-76
2021/12/10 12:07:50;;;;;;;221.05;50.88;;;2.20;99.90;;;;;;5006504;28;20080;-76
2021/12/10 12:10:21;;;;;;;225.23;51.72;;;2.20;99.90;;;;;;5018066;28;20499;-76
2021/12/10 12:12:55;;;;;;;209.43;50.97;;;2.20;99.90;;;;;;5034983;28;20131;-76
2021/12/10 12:15:22;;;;;;;200.02;47.40;;;2.20;99.90;;;;;;5028636;28;20091;-76
2021/12/10 12:17:53;;;;;;;209.40;45.65;;;2.20;99.90;;;;;;5045155;28;20126;-76
2021/12/10 12:27:08;;;;;;;194.55;47.90;;;2.10;99.90;;;;;;4995224;28;20050;-79
2021/12/10 12:29:58;;;;;;;196.57;46.42;;;2.00;99.90;;;;;;5002968;28;20050;-78
2021/12/10 12:32:37;;;;;;;187.15;46.90;;;2.10;99.90;;;;;;5022471;28;20104;-77
2021/12/10 12:35:20;;;;;;;190.40;46.22;;;2.10;99.90;;;;;;4999040;28;20056;-78
2021/12/10 12:37:47;;;;;;;176.73;45.40;;;2.10;99.90;;;;;;4973869;28;20779;-78
2021/12/10 12:40:36;;;;;;;188.15;51.13;;;2.10;99.90;;;;;;4998378;28;20049;-79
2021/12/10 12:43:06;;;;;;;208.45;57.15;;;2.20;99.90;;;;;;5019781;28;20068;-78
2021/12/10 12:45:38;;;;;;;189.38;45.85;;;2.20;99.90;;;;;;4993283;28;20050;-78
2021/12/10 12:48:24;;;;;;;174.38;44.20;;;2.10;99.90;;;;;;4995916;28;20136;-79
2021/12/10 12:50:50;;;;;;;180.10;45.60;;;2.10;99.90;;;;;;5009930;28;20054;-78
2021/12/10 12:53:21;;;;;;;184.07;46.97;;;2.10;99.90;;;;;;4973604;28;20094;-79
2021/12/10 12:56:02;;;;;;;160.52;45.60;;;2.10;99.90;;;;;;5002153;28;20057;-79
2021/12/10 12:58:55;;;;;;;185.77;45.85;;;2.10;99.90;;;;;;4994268;28;20049;-78
2021/12/10 13:01:37;;;;;;;178.27;47.83;;;2.20;99.90;;;;;;4999230;28;20057;-78
2021/12/10 13:04:10;;;;;;;176.80;43.25;;;2.10;99.90;;;;;;5022198;28;20041;-78
2021/12/10 13:07:18;;;;;;;169.75;43.83;;;2.10;99.90;;;;;;5019875;28;20050;-78